Terminal Aerodrome Forecast
Issued by NWS

Home | Current Version | Previous Version | Text Only | Print | Product List | Glossary On
Versions: 1 2 3 4 5 6 7 8 9 10 11 12 13 14 15 16 17 18 19 20 21
782
FTUS43 KIND 100520
TAFHUF
TAF
KHUF 100520Z 1006/1106 29010KT P6SM -SHSN SCT025 OVC045
      TEMPO 1006/1008 3SM -SHSN BKN025 OVC045
     FM101000 30009KT P6SM SCT025 BKN045
      TEMPO 1013/1017 BKN025 OVC045
     FM110000 28007KT P6SM SCT045 SCT080=

USA.gov is the U.S. government's official web portal to all federal, state and local government web resources and services.